createdAt,value
2024-05-09T00:00:15.695Z,41.55
2024-05-09T00:01:11.830Z,41.58
2024-05-09T00:02:10.972Z,41.62
2024-05-09T00:03:11.926Z,41.55
2024-05-09T00:04:10.937Z,41.58
2024-05-09T00:05:11.343Z,41.63
2024-05-09T00:06:10.994Z,41.56
2024-05-09T00:07:10.929Z,41.58
2024-05-09T00:08:11.209Z,41.55
2024-05-09T00:09:10.920Z,41.55
2024-05-09T00:10:18.271Z,41.55
2024-05-09T00:11:11.929Z,41.51
2024-05-09T00:12:11.074Z,41.47
2024-05-09T00:13:11.319Z,41.46
2024-05-09T00:14:11.042Z,41.47
2024-05-09T00:15:10.849Z,41.47
2024-05-09T00:16:10.892Z,41.51
2024-05-09T00:17:10.899Z,41.39
2024-05-09T00:18:11.132Z,41.39
2024-05-09T00:19:11.017Z,41.47
2024-05-09T00:20:17.628Z,41.46
2024-05-09T00:21:11.913Z,41.43
2024-05-09T00:22:10.970Z,41.47
2024-05-09T00:23:12.198Z,41.48
2024-05-09T00:24:10.989Z,41.50
2024-05-09T00:25:11.077Z,41.53
2024-05-09T00:26:11.061Z,41.55
2024-05-09T00:27:13.248Z,41.56
2024-05-09T00:28:11.041Z,41.53
2024-05-09T00:29:11.146Z,41.45
2024-05-09T00:30:17.470Z,41.52
2024-05-09T00:31:12.129Z,41.54
2024-05-09T00:32:11.268Z,41.54
2024-05-09T00:33:11.905Z,41.59
2024-05-09T00:34:11.256Z,41.58
2024-05-09T00:35:11.217Z,41.62
2024-05-09T00:36:11.135Z,41.59
2024-05-09T00:37:11.151Z,41.57
2024-05-09T00:38:11.237Z,41.58
2024-05-09T00:39:11.163Z,41.55
2024-05-09T00:40:15.334Z,41.49
2024-05-09T00:41:12.202Z,41.51
2024-05-09T00:42:11.183Z,41.54
2024-05-09T00:43:11.832Z,41.50
2024-05-09T00:44:11.185Z,41.50
2024-05-09T00:45:11.202Z,41.48
2024-05-09T00:46:11.178Z,41.49
2024-05-09T00:47:11.274Z,41.50
2024-05-09T00:48:13.294Z,41.47
2024-05-09T00:49:11.259Z,41.49
2024-05-09T00:50:15.989Z,41.40
2024-05-09T00:51:12.353Z,41.44
2024-05-09T00:52:11.170Z,41.43
2024-05-09T00:53:11.482Z,41.28
2024-05-09T00:54:11.166Z,41.35
2024-05-09T00:55:11.184Z,41.32
2024-05-09T00:56:11.261Z,41.30
2024-05-09T00:57:11.225Z,41.35
2024-05-09T00:58:11.230Z,41.36
2024-05-09T00:59:11.350Z,41.33
2024-05-09T01:00:22.099Z,41.31
2024-05-09T01:01:12.262Z,41.40
2024-05-09T01:02:11.309Z,41.37
2024-05-09T01:03:13.195Z,41.36
2024-05-09T01:04:11.537Z,41.36
2024-05-09T01:05:11.370Z,41.36
2024-05-09T01:06:11.240Z,41.39
2024-05-09T01:07:11.255Z,41.41
2024-05-09T01:08:11.612Z,41.38
2024-05-09T01:09:11.298Z,41.40
2024-05-09T01:10:17.075Z,41.43
2024-05-09T01:11:12.400Z,41.52
2024-05-09T01:12:11.559Z,41.43
2024-05-09T01:13:11.276Z,41.52
2024-05-09T01:14:11.310Z,41.48
2024-05-09T01:15:11.305Z,41.40
2024-05-09T01:16:11.316Z,41.44
2024-05-09T01:17:11.312Z,41.38
2024-05-09T01:18:12.601Z,41.34
2024-05-09T01:19:11.468Z,41.39
2024-05-09T01:20:19.790Z,41.35
2024-05-09T01:21:12.458Z,41.36
2024-05-09T01:22:11.286Z,41.35
2024-05-09T01:23:11.762Z,41.31
2024-05-09T01:24:11.309Z,41.39
2024-05-09T01:25:11.316Z,41.29
2024-05-09T01:26:11.392Z,41.31
2024-05-09T01:27:11.339Z,41.37
2024-05-09T01:28:11.333Z,41.35
2024-05-09T01:29:11.395Z,41.37
2024-05-09T01:30:17.197Z,41.36
2024-05-09T01:31:12.335Z,41.36
2024-05-09T01:32:11.488Z,41.35
2024-05-09T01:33:12.521Z,41.32
2024-05-09T01:34:11.377Z,41.35
2024-05-09T01:35:11.338Z,41.34
2024-05-09T01:36:11.365Z,41.31
2024-05-09T01:37:11.323Z,41.27
2024-05-09T01:38:11.460Z,41.29
2024-05-09T01:39:11.362Z,41.30
2024-05-09T01:40:15.358Z,41.29
2024-05-09T01:41:12.426Z,41.33
2024-05-09T01:42:11.343Z,41.38
2024-05-09T01:43:12.170Z,41.31
2024-05-09T01:44:11.397Z,41.33
2024-05-09T01:45:11.362Z,41.26
2024-05-09T01:46:11.356Z,41.29
2024-05-09T01:47:11.494Z,41.24
2024-05-09T01:48:11.849Z,41.25
2024-05-09T01:49:11.433Z,41.30
2024-05-09T01:50:11.577Z,41.33
2024-05-09T01:51:11.538Z,41.33
2024-05-09T01:52:11.401Z,41.24
2024-05-09T01:53:11.834Z,41.25
2024-05-09T01:54:11.387Z,41.25
2024-05-09T01:55:11.417Z,41.28
2024-05-09T01:56:11.437Z,41.29
2024-05-09T01:57:11.399Z,41.30
2024-05-09T01:58:11.440Z,41.29
2024-05-09T01:59:11.537Z,41.23
2024-05-09T02:00:15.595Z,41.24
2024-05-09T02:01:11.523Z,41.22
2024-05-09T02:02:11.674Z,41.27
2024-05-09T02:03:14.452Z,41.24
2024-05-09T02:04:12.741Z,41.34
2024-05-09T02:05:11.601Z,41.27
2024-05-09T02:06:11.637Z,41.27
2024-05-09T02:07:11.491Z,41.32
2024-05-09T02:08:11.563Z,41.33
2024-05-09T02:09:11.520Z,41.29
2024-05-09T02:10:20.013Z,41.34
2024-05-09T02:11:12.710Z,41.37
2024-05-09T02:12:11.640Z,41.31
2024-05-09T02:13:11.498Z,41.32
2024-05-09T02:14:11.543Z,41.31
2024-05-09T02:15:11.521Z,41.30
2024-05-09T02:16:11.546Z,41.33
2024-05-09T02:17:11.577Z,41.31
2024-05-09T02:18:12.024Z,41.31
2024-05-09T02:19:11.725Z,41.31
2024-05-09T02:20:18.797Z,41.33
2024-05-09T02:21:12.639Z,41.31
2024-05-09T02:22:11.572Z,41.28
2024-05-09T02:23:11.681Z,41.33
2024-05-09T02:24:11.612Z,41.34
2024-05-09T02:25:11.594Z,41.35
2024-05-09T02:26:11.610Z,41.31
2024-05-09T02:27:11.598Z,41.31
2024-05-09T02:28:11.596Z,41.29
2024-05-09T02:29:11.596Z,41.34
2024-05-09T02:30:18.840Z,41.30
2024-05-09T02:31:12.594Z,41.32
2024-05-09T02:32:11.712Z,41.29
2024-05-09T02:33:13.635Z,41.31
2024-05-09T02:34:11.723Z,41.30
2024-05-09T02:35:11.644Z,41.28
2024-05-09T02:36:11.606Z,41.30
2024-05-09T02:37:11.602Z,41.37
2024-05-09T02:38:11.900Z,41.37
2024-05-09T02:39:11.611Z,41.35
2024-05-09T02:40:14.622Z,41.38
2024-05-09T02:41:12.674Z,41.37
2024-05-09T02:42:11.623Z,41.39
2024-05-09T02:43:12.553Z,41.39
2024-05-09T02:44:11.759Z,41.38
2024-05-09T02:45:11.616Z,41.40
2024-05-09T02:46:11.626Z,41.43
2024-05-09T02:47:11.752Z,41.42
2024-05-09T02:48:12.617Z,41.44
2024-05-09T02:49:12.039Z,41.38
2024-05-09T02:51:11.737Z,41.42
2024-05-09T02:52:11.664Z,41.37
2024-05-09T02:53:11.923Z,41.37
2024-05-09T02:54:11.623Z,41.40
2024-05-09T02:55:11.631Z,41.44
2024-05-09T02:56:11.716Z,41.40
2024-05-09T02:57:11.740Z,41.40
2024-05-09T02:58:11.751Z,41.39
2024-05-09T02:59:11.762Z,41.39
2024-05-09T03:00:18.515Z,41.34
2024-05-09T03:01:12.832Z,41.30
2024-05-09T03:02:11.854Z,41.31
2024-05-09T03:03:14.095Z,41.29
2024-05-09T03:04:11.806Z,41.33
2024-05-09T03:05:11.887Z,41.34
2024-05-09T03:06:11.775Z,41.28
2024-05-09T03:07:11.825Z,41.30
2024-05-09T03:08:11.958Z,41.33
2024-05-09T03:09:11.783Z,41.33
2024-05-09T03:10:18.417Z,41.29
2024-05-09T03:11:12.879Z,41.29
2024-05-09T03:12:12.055Z,41.30
2024-05-09T03:13:12.543Z,41.29
2024-05-09T03:14:11.869Z,41.29
2024-05-09T03:15:11.829Z,41.29
2024-05-09T03:16:11.914Z,41.26
2024-05-09T03:17:12.028Z,41.30
2024-05-09T03:18:12.524Z,41.28
2024-05-09T03:19:11.974Z,41.20
2024-05-09T03:20:20.324Z,41.21
2024-05-09T03:21:12.828Z,41.21
2024-05-09T03:22:11.778Z,41.21
2024-05-09T03:23:11.906Z,41.22
2024-05-09T03:24:11.804Z,41.21
2024-05-09T03:25:11.798Z,41.23
2024-05-09T03:26:11.896Z,41.23
2024-05-09T03:27:11.834Z,41.25
2024-05-09T03:28:11.782Z,41.27
2024-05-09T03:29:11.827Z,41.28
2024-05-09T03:30:15.582Z,41.26
2024-05-09T03:31:12.806Z,41.25
2024-05-09T03:32:12.224Z,41.22
2024-05-09T03:33:13.160Z,41.23
2024-05-09T03:34:11.868Z,41.21
2024-05-09T03:35:11.848Z,41.23
2024-05-09T03:36:11.800Z,41.21
2024-05-09T03:37:11.856Z,41.23
2024-05-09T03:38:12.112Z,41.22
2024-05-09T03:39:11.941Z,41.22
2024-05-09T03:40:20.242Z,41.27
2024-05-09T03:41:12.997Z,41.23
2024-05-09T03:42:12.103Z,41.21
2024-05-09T03:43:11.952Z,41.25
2024-05-09T03:44:12.051Z,41.30
2024-05-09T03:45:11.973Z,41.31
2024-05-09T03:46:11.973Z,41.33
2024-05-09T03:47:12.162Z,41.30
2024-05-09T03:48:12.344Z,41.31
2024-05-09T03:49:12.122Z,41.27
2024-05-09T03:50:18.378Z,41.28
2024-05-09T03:51:13.058Z,41.33
2024-05-09T03:52:11.990Z,41.28
2024-05-09T03:53:12.036Z,41.27
2024-05-09T03:54:11.994Z,41.27
2024-05-09T03:55:11.994Z,41.28
2024-05-09T03:56:12.084Z,41.30
2024-05-09T03:57:12.089Z,41.28
2024-05-09T03:58:12.050Z,41.24
2024-05-09T03:59:12.044Z,41.29
2024-05-09T04:00:17.964Z,41.31
2024-05-09T04:01:13.057Z,41.32
2024-05-09T04:02:12.138Z,41.33
2024-05-09T04:03:13.234Z,41.32
2024-05-09T04:04:12.118Z,41.34
2024-05-09T04:05:12.093Z,41.27
2024-05-09T04:06:12.050Z,41.28
2024-05-09T04:07:12.085Z,41.31
2024-05-09T04:08:12.243Z,41.37
2024-05-09T04:09:12.063Z,41.31
2024-05-09T04:10:20.696Z,41.34
2024-05-09T04:11:13.200Z,41.28
2024-05-09T04:12:12.264Z,41.25
2024-05-09T04:13:12.123Z,41.29
2024-05-09T04:14:12.142Z,41.32
2024-05-09T04:15:13.644Z,41.29
2024-05-09T04:16:12.197Z,41.27
2024-05-09T04:17:12.129Z,41.25
2024-05-09T04:18:12.101Z,41.32
2024-05-09T04:19:12.124Z,41.23
2024-05-09T04:20:21.339Z,41.20
2024-05-09T04:21:13.095Z,41.21
2024-05-09T04:22:12.097Z,41.25
2024-05-09T04:23:12.615Z,41.25
2024-05-09T04:24:12.071Z,41.22
2024-05-09T04:25:12.075Z,41.21
2024-05-09T04:26:12.175Z,41.27
2024-05-09T04:27:12.134Z,41.22
2024-05-09T04:28:12.168Z,41.18
2024-05-09T04:29:12.150Z,41.26
2024-05-09T04:30:18.970Z,41.26
2024-05-09T04:31:13.143Z,41.27
2024-05-09T04:32:12.214Z,41.25
2024-05-09T04:33:13.896Z,41.20
2024-05-09T04:34:12.447Z,41.25
2024-05-09T04:35:12.388Z,41.26
2024-05-09T04:36:12.422Z,41.24
2024-05-09T04:37:12.496Z,41.27
2024-05-09T04:38:12.675Z,41.25
2024-05-09T04:39:12.551Z,41.27
2024-05-09T04:40:24.028Z,41.29
2024-05-09T04:41:13.614Z,41.29
2024-05-09T04:42:12.602Z,41.28
2024-05-09T04:43:12.568Z,41.28
2024-05-09T04:44:12.651Z,41.26
2024-05-09T04:45:12.588Z,41.26
2024-05-09T04:46:12.636Z,41.25
2024-05-09T04:47:12.749Z,41.30
2024-05-09T04:48:13.020Z,41.20
2024-05-09T04:49:12.760Z,41.23
2024-05-09T04:50:21.148Z,41.26
2024-05-09T04:51:13.710Z,41.26
2024-05-09T04:52:12.641Z,41.25
2024-05-09T04:53:19.974Z,41.31
2024-05-09T04:55:19.961Z,41.29
2024-05-09T04:56:20.012Z,41.31
2024-05-09T04:57:19.958Z,41.21
2024-05-09T04:58:19.980Z,41.24
2024-05-09T04:59:20.005Z,41.26
2024-05-09T05:00:42.693Z,41.28
2024-05-09T05:01:20.083Z,41.23
2024-05-09T05:02:20.116Z,41.20
2024-05-09T05:03:20.288Z,41.24
2024-05-09T05:04:20.161Z,41.20
2024-05-09T05:05:20.037Z,41.26
2024-05-09T05:06:20.016Z,41.18
2024-05-09T05:07:20.010Z,41.19
2024-05-09T05:08:20.198Z,41.18
2024-05-09T05:09:20.074Z,41.19
2024-05-09T05:10:25.472Z,41.19
2024-05-09T05:11:21.165Z,41.22
2024-05-09T05:12:20.151Z,41.23
2024-05-09T05:13:21.365Z,41.21
2024-05-09T05:14:20.131Z,41.21
2024-05-09T05:15:20.089Z,41.18
2024-05-09T05:16:20.154Z,41.16
2024-05-09T05:17:20.216Z,41.20
2024-05-09T05:18:20.504Z,41.21
2024-05-09T05:19:20.340Z,41.17
2024-05-09T05:20:27.443Z,41.14
2024-05-09T05:21:21.429Z,41.22
2024-05-09T05:22:20.313Z,41.26
2024-05-09T05:23:20.548Z,41.20
2024-05-09T05:24:20.286Z,41.25
2024-05-09T05:25:20.285Z,41.25
2024-05-09T05:26:20.468Z,41.23
2024-05-09T05:27:20.307Z,41.30
2024-05-09T05:28:20.317Z,41.21
2024-05-09T05:29:20.999Z,41.28
2024-05-09T05:30:25.251Z,41.23
2024-05-09T05:31:21.395Z,41.26
2024-05-09T05:32:20.511Z,41.25
2024-05-09T05:33:20.772Z,41.27
2024-05-09T05:34:20.296Z,41.20
2024-05-09T05:35:20.369Z,41.23
2024-05-09T05:36:20.317Z,41.28
2024-05-09T05:37:20.337Z,41.26
2024-05-09T05:38:22.852Z,41.21
2024-05-09T05:39:20.341Z,41.19
2024-05-09T05:40:28.202Z,41.14
2024-05-09T05:41:21.342Z,41.16
2024-05-09T05:42:20.349Z,41.14
2024-05-09T05:43:20.372Z,41.17
2024-05-09T05:44:20.410Z,41.10
2024-05-09T05:46:42.847Z,41.14
2024-05-09T05:47:20.492Z,41.14
2024-05-09T05:48:20.537Z,41.14
2024-05-09T05:49:20.510Z,41.17
2024-05-09T05:50:27.520Z,41.11
2024-05-09T05:51:21.493Z,41.14
2024-05-09T05:52:20.352Z,41.16
2024-05-09T05:53:20.441Z,41.12
2024-05-09T05:54:20.376Z,41.11
2024-05-09T05:55:20.391Z,41.10
2024-05-09T05:56:20.436Z,41.08
2024-05-09T05:57:20.373Z,41.08
2024-05-09T05:58:20.422Z,41.09
2024-05-09T05:59:20.418Z,41.04
2024-05-09T06:00:29.287Z,41.01
2024-05-09T06:01:21.524Z,41.03
2024-05-09T06:02:20.607Z,41.04
2024-05-09T06:03:20.571Z,41.04
2024-05-09T06:04:20.536Z,41.03
2024-05-09T06:05:20.481Z,41.03
2024-05-09T06:06:20.499Z,41.01
2024-05-09T06:07:20.503Z,40.95
2024-05-09T06:08:20.688Z,40.94
2024-05-09T06:09:20.550Z,40.93
2024-05-09T06:10:25.671Z,40.93
2024-05-09T06:11:21.647Z,40.93
2024-05-09T06:12:20.749Z,40.95
2024-05-09T06:13:20.499Z,40.92
2024-05-09T06:14:20.766Z,40.84
2024-05-09T06:15:20.529Z,40.74
2024-05-09T06:16:20.509Z,40.70
2024-05-09T06:17:20.724Z,40.70
2024-05-09T06:18:20.767Z,40.70
2024-05-09T06:19:20.801Z,40.70
2024-05-09T06:20:27.390Z,40.73
2024-05-09T06:21:21.722Z,40.71
2024-05-09T06:22:20.563Z,40.73
2024-05-09T06:23:20.659Z,40.68
2024-05-09T06:24:20.593Z,40.66
2024-05-09T06:25:20.635Z,40.61
2024-05-09T06:26:20.652Z,40.53
2024-05-09T06:27:20.614Z,40.48
2024-05-09T06:28:20.599Z,40.60
2024-05-09T06:29:20.686Z,40.48
2024-05-09T06:30:29.904Z,40.41
2024-05-09T06:31:21.617Z,40.42
2024-05-09T06:32:20.855Z,40.43
2024-05-09T06:33:20.765Z,40.38
2024-05-09T06:34:20.788Z,40.41
2024-05-09T06:35:20.659Z,40.41
2024-05-09T06:36:20.629Z,40.37
2024-05-09T06:37:20.707Z,40.33
2024-05-09T06:38:20.729Z,40.27
2024-05-09T06:39:20.640Z,40.23
2024-05-09T06:40:25.723Z,40.19
2024-05-09T06:41:21.760Z,40.16
2024-05-09T06:42:20.637Z,40.18
2024-05-09T06:43:20.642Z,40.13
2024-05-09T06:44:20.677Z,40.12
2024-05-09T06:45:20.648Z,40.14
2024-05-09T06:46:20.670Z,40.13
2024-05-09T06:47:20.741Z,40.12
2024-05-09T06:48:21.262Z,40.10
2024-05-09T06:49:20.787Z,40.10
2024-05-09T06:50:24.263Z,40.10
2024-05-09T06:51:21.674Z,40.10
2024-05-09T06:52:20.665Z,40.12
2024-05-09T06:53:20.770Z,40.02
2024-05-09T06:54:20.676Z,40.02
2024-05-09T06:55:20.659Z,39.97
2024-05-09T06:56:20.707Z,39.93
2024-05-09T06:57:20.661Z,39.93
2024-05-09T06:58:20.679Z,39.96
2024-05-09T06:59:20.694Z,39.91
2024-05-09T07:00:27.720Z,39.90
2024-05-09T07:01:21.714Z,39.90
2024-05-09T07:02:20.771Z,39.82
2024-05-09T07:03:20.869Z,39.86
2024-05-09T07:04:20.737Z,39.82
2024-05-09T07:05:20.857Z,39.84
2024-05-09T07:06:20.701Z,39.81
2024-05-09T07:07:20.703Z,39.79
2024-05-09T07:08:20.769Z,39.75
2024-05-09T07:09:20.728Z,39.72
2024-05-09T07:10:28.651Z,39.78
2024-05-09T07:11:21.809Z,39.79
2024-05-09T07:12:20.852Z,39.76
2024-05-09T07:13:20.734Z,39.73
2024-05-09T07:14:20.781Z,39.70
2024-05-09T07:15:20.715Z,39.62
2024-05-09T07:16:20.734Z,39.62
2024-05-09T07:17:20.833Z,39.55
2024-05-09T07:18:21.001Z,39.48
2024-05-09T07:19:20.794Z,39.44
2024-05-09T07:20:31.650Z,39.47
2024-05-09T07:21:21.863Z,39.43
2024-05-09T07:22:20.772Z,39.40
2024-05-09T07:23:20.843Z,39.40
2024-05-09T07:24:20.797Z,39.36
2024-05-09T07:25:20.792Z,39.30
2024-05-09T07:26:20.851Z,39.31
2024-05-09T07:27:20.763Z,39.28
2024-05-09T07:28:20.787Z,39.29
2024-05-09T07:29:20.900Z,39.23
2024-05-09T07:30:27.535Z,39.20
2024-05-09T07:31:21.877Z,39.11
2024-05-09T07:32:20.911Z,39.10
2024-05-09T07:33:22.640Z,39.01
2024-05-09T07:34:20.946Z,39.05
2024-05-09T07:35:20.893Z,38.96
2024-05-09T07:36:20.870Z,38.99
2024-05-09T07:37:20.903Z,38.97
2024-05-09T07:38:21.128Z,38.93
2024-05-09T07:39:20.896Z,38.87
2024-05-09T07:40:31.577Z,38.88
2024-05-09T07:41:21.939Z,38.84
2024-05-09T07:42:20.903Z,38.76
2024-05-09T07:43:20.910Z,38.67
2024-05-09T07:44:20.967Z,38.58
2024-05-09T07:45:39.896Z,38.58
2024-05-09T07:48:32.063Z,38.49
2024-05-09T07:53:30.363Z,38.26
2024-05-09T07:53:39.143Z,38.33
2024-05-09T07:54:22.041Z,38.28
2024-05-09T07:55:21.026Z,38.22
2024-05-09T07:56:22.690Z,38.28
2024-05-09T07:57:21.029Z,38.25
2024-05-09T07:58:20.942Z,38.23
2024-05-09T07:59:20.998Z,38.20
2024-05-09T08:00:29.483Z,38.17
2024-05-09T08:01:22.152Z,38.14
2024-05-09T08:02:21.037Z,38.18
2024-05-09T08:03:21.088Z,38.17
2024-05-09T08:04:22.387Z,38.08
2024-05-09T08:05:21.083Z,38.12
2024-05-09T08:06:20.977Z,38.13
2024-05-09T08:07:20.997Z,38.08
2024-05-09T08:08:21.003Z,37.95
2024-05-09T08:09:21.537Z,37.99
2024-05-09T08:10:24.671Z,37.98
2024-05-09T08:11:22.135Z,37.91
2024-05-09T08:12:21.090Z,37.89
2024-05-09T08:13:21.231Z,37.79
2024-05-09T08:14:21.102Z,37.82
2024-05-09T08:15:21.098Z,37.81
2024-05-09T08:16:21.300Z,37.76
2024-05-09T08:17:21.195Z,37.79
2024-05-09T08:18:21.260Z,37.70
2024-05-09T08:19:21.189Z,37.59
2024-05-09T08:20:30.143Z,37.57
2024-05-09T08:21:22.107Z,37.53
2024-05-09T08:22:21.161Z,37.52
2024-05-09T08:23:21.110Z,37.53
2024-05-09T08:24:21.129Z,37.53
2024-05-09T08:25:21.196Z,37.46
2024-05-09T08:26:21.170Z,37.46
2024-05-09T08:27:21.141Z,37.44
2024-05-09T08:28:21.278Z,37.46
2024-05-09T08:29:21.205Z,37.48
2024-05-09T08:30:29.058Z,37.42
2024-05-09T08:31:22.243Z,37.34
2024-05-09T08:32:21.192Z,37.27
2024-05-09T08:33:21.290Z,37.26
2024-05-09T08:34:21.297Z,37.24
2024-05-09T08:35:21.169Z,37.25
2024-05-09T08:36:21.184Z,37.28
2024-05-09T08:37:23.528Z,37.17
2024-05-09T08:38:22.281Z,37.16
2024-05-09T08:39:21.175Z,37.12
2024-05-09T08:40:30.541Z,37.11
2024-05-09T08:41:22.202Z,37.07
2024-05-09T08:42:21.187Z,37.04
2024-05-09T08:43:21.412Z,37.11
2024-05-09T08:44:21.198Z,37.04
2024-05-09T08:45:21.210Z,36.98
2024-05-09T08:46:21.416Z,36.96
2024-05-09T08:47:21.306Z,36.91
2024-05-09T08:48:21.377Z,36.85
2024-05-09T08:49:21.348Z,36.85
2024-05-09T08:50:31.442Z,36.71
2024-05-09T08:51:22.194Z,36.72
2024-05-09T08:52:21.217Z,36.64
2024-05-09T08:53:21.220Z,36.65
2024-05-09T08:54:21.231Z,36.67
2024-05-09T08:55:21.281Z,36.67
2024-05-09T08:56:21.276Z,36.59
2024-05-09T08:57:21.252Z,36.63
2024-05-09T08:58:21.380Z,36.55
2024-05-09T08:59:21.300Z,36.55
2024-05-09T09:00:29.623Z,36.53
2024-05-09T09:01:22.436Z,36.49
2024-05-09T09:02:21.594Z,36.45
2024-05-09T09:03:21.283Z,36.46
2024-05-09T09:04:21.445Z,36.46
2024-05-09T09:05:21.532Z,36.49
2024-05-09T09:06:21.355Z,36.45
2024-05-09T09:07:21.376Z,36.41
2024-05-09T09:08:21.330Z,36.36
2024-05-09T09:09:21.326Z,36.43
2024-05-09T09:10:29.568Z,36.37
2024-05-09T09:11:22.376Z,36.41
2024-05-09T09:12:21.353Z,36.31
2024-05-09T09:13:21.395Z,36.36
2024-05-09T09:14:21.373Z,36.27
2024-05-09T09:15:21.352Z,36.26
2024-05-09T09:16:21.440Z,36.20
2024-05-09T09:17:21.427Z,36.12
2024-05-09T09:18:21.457Z,36.07
2024-05-09T09:19:21.626Z,35.98
2024-05-09T09:20:28.725Z,35.96
2024-05-09T09:21:22.406Z,35.98
2024-05-09T09:22:21.427Z,35.91
2024-05-09T09:23:21.396Z,35.93
2024-05-09T09:24:21.409Z,35.92
2024-05-09T09:25:21.428Z,35.83
2024-05-09T09:26:21.424Z,35.79
2024-05-09T09:27:21.452Z,35.75
2024-05-09T09:28:21.538Z,35.73
2024-05-09T09:29:21.456Z,35.68
2024-05-09T09:30:33.989Z,35.63
2024-05-09T09:31:22.476Z,35.64
2024-05-09T09:32:21.487Z,35.60
2024-05-09T09:33:21.502Z,35.54
2024-05-09T09:34:21.584Z,35.49
2024-05-09T09:35:21.486Z,35.57
2024-05-09T09:36:21.528Z,35.52
2024-05-09T09:37:21.504Z,35.56
2024-05-09T09:38:21.463Z,35.44
2024-05-09T09:39:21.497Z,35.40
2024-05-09T09:40:22.391Z,35.45
2024-05-09T09:41:21.530Z,35.28
2024-05-09T09:42:21.546Z,35.34
2024-05-09T09:43:22.005Z,35.32
2024-05-09T09:44:21.544Z,35.32
2024-05-09T09:45:21.553Z,35.20
2024-05-09T09:46:21.589Z,35.19
2024-05-09T09:47:21.603Z,35.19
2024-05-09T09:48:21.742Z,35.17
2024-05-09T09:49:21.593Z,35.22
2024-05-09T09:50:27.713Z,35.08
2024-05-09T09:51:22.547Z,35.06
2024-05-09T09:52:21.737Z,35.00
2024-05-09T09:53:21.653Z,34.97
2024-05-09T09:54:21.587Z,34.93
2024-05-09T09:55:21.610Z,34.93
2024-05-09T09:56:21.585Z,35.03
2024-05-09T09:57:21.559Z,34.96
2024-05-09T09:58:21.706Z,34.86
2024-05-09T09:59:21.638Z,34.96
2024-05-09T10:00:27.127Z,34.91
2024-05-09T10:01:22.733Z,34.86
2024-05-09T10:02:21.797Z,34.82
2024-05-09T10:03:21.727Z,34.76
2024-05-09T10:04:21.827Z,34.77
2024-05-09T10:05:21.766Z,34.75
2024-05-09T10:06:21.632Z,34.69
2024-05-09T10:07:21.740Z,34.74
2024-05-09T10:08:21.624Z,34.74
2024-05-09T10:09:21.652Z,34.75
2024-05-09T10:10:27.412Z,34.65
2024-05-09T10:11:22.811Z,34.66
2024-05-09T10:12:21.734Z,34.65
2024-05-09T10:13:21.799Z,34.57
2024-05-09T10:14:21.673Z,34.52
2024-05-09T10:15:21.748Z,34.56
2024-05-09T10:16:21.904Z,34.55
2024-05-09T10:17:21.760Z,34.55
2024-05-09T10:18:21.766Z,34.50
2024-05-09T10:19:21.777Z,34.47
2024-05-09T10:20:25.223Z,34.51
2024-05-09T10:21:22.674Z,34.55
2024-05-09T10:22:21.731Z,34.47
2024-05-09T10:23:21.667Z,34.42
2024-05-09T10:24:21.687Z,34.49
2024-05-09T10:25:21.848Z,34.46
2024-05-09T10:26:21.695Z,34.47
2024-05-09T10:27:21.709Z,34.40
2024-05-09T10:28:21.721Z,34.38
2024-05-09T10:29:21.706Z,34.36
2024-05-09T10:30:29.480Z,34.29
2024-05-09T10:31:22.735Z,34.21
2024-05-09T10:32:21.796Z,34.34
2024-05-09T10:33:21.792Z,34.34
2024-05-09T10:34:22.051Z,34.31
2024-05-09T10:35:21.727Z,34.30
2024-05-09T10:36:21.766Z,34.30
2024-05-09T10:37:21.885Z,34.16
2024-05-09T10:38:21.701Z,34.14
2024-05-09T10:39:21.755Z,34.10
2024-05-09T10:40:26.607Z,34.09
2024-05-09T10:41:22.853Z,34.11
2024-05-09T10:42:21.839Z,33.98
2024-05-09T10:43:21.961Z,33.95
2024-05-09T10:44:21.828Z,33.97
2024-05-09T10:45:21.870Z,33.97
2024-05-09T10:46:22.042Z,33.88
2024-05-09T10:47:21.935Z,33.92
2024-05-09T10:48:21.947Z,33.92
2024-05-09T10:49:21.963Z,33.88
2024-05-09T10:50:28.191Z,33.95
2024-05-09T10:51:23.005Z,33.83
2024-05-09T10:52:21.932Z,33.78
2024-05-09T10:53:21.885Z,33.83
2024-05-09T10:54:21.904Z,33.78
2024-05-09T10:55:22.166Z,33.79
2024-05-09T10:56:21.900Z,33.68
2024-05-09T10:57:21.921Z,33.70
2024-05-09T10:58:21.921Z,33.63
2024-05-09T10:59:21.889Z,33.68
2024-05-09T11:00:27.797Z,33.67
2024-05-09T11:01:23.031Z,33.68
2024-05-09T11:02:22.036Z,33.47
2024-05-09T11:03:21.924Z,33.50
2024-05-09T11:04:21.969Z,33.56
2024-05-09T11:05:22.222Z,33.40
2024-05-09T11:06:21.901Z,33.31
2024-05-09T11:07:21.971Z,33.35
2024-05-09T11:08:21.934Z,33.33
2024-05-09T11:09:21.932Z,33.40
2024-05-09T11:10:27.584Z,33.39
2024-05-09T11:11:23.039Z,33.39
2024-05-09T11:12:23.660Z,33.41
2024-05-09T11:13:21.990Z,33.34
2024-05-09T11:14:21.961Z,33.33
2024-05-09T11:15:21.974Z,33.27
2024-05-09T11:16:22.061Z,33.29
2024-05-09T11:17:21.979Z,33.27
2024-05-09T11:18:25.012Z,33.31
2024-05-09T11:19:22.151Z,33.21
2024-05-09T11:20:26.966Z,33.17
2024-05-09T11:21:23.017Z,33.14
2024-05-09T11:22:22.034Z,33.14
2024-05-09T11:23:21.981Z,33.07
2024-05-09T11:24:21.963Z,33.10
2024-05-09T11:25:22.051Z,33.03
2024-05-09T11:26:22.213Z,33.00
2024-05-09T11:27:22.058Z,32.99
2024-05-09T11:28:22.094Z,33.01
2024-05-09T11:29:22.039Z,32.99
2024-05-09T11:30:29.732Z,32.98
2024-05-09T11:31:23.360Z,32.99
2024-05-09T11:32:22.094Z,33.05
2024-05-09T11:33:22.131Z,33.13
2024-05-09T11:34:22.125Z,33.11
2024-05-09T11:35:22.057Z,33.09
2024-05-09T11:36:22.065Z,33.01
2024-05-09T11:37:22.115Z,33.05
2024-05-09T11:38:22.034Z,33.00
2024-05-09T11:39:22.056Z,33.04
2024-05-09T11:40:25.712Z,33.01
2024-05-09T11:41:23.056Z,32.97
2024-05-09T11:42:22.047Z,32.95
2024-05-09T11:43:22.149Z,32.95
2024-05-09T11:44:22.073Z,32.94
2024-05-09T11:45:22.089Z,32.87
2024-05-09T11:46:22.114Z,32.90
2024-05-09T11:47:22.140Z,32.87
2024-05-09T11:48:22.324Z,32.75
2024-05-09T11:49:23.871Z,32.83
2024-05-09T11:50:27.383Z,32.69
2024-05-09T11:51:23.093Z,32.75
2024-05-09T11:52:22.143Z,32.75
2024-05-09T11:53:22.106Z,32.70
2024-05-09T11:54:22.110Z,32.71
2024-05-09T11:55:23.955Z,32.68
2024-05-09T11:56:22.113Z,32.70
2024-05-09T11:57:22.090Z,32.70
2024-05-09T11:58:22.115Z,32.65
2024-05-09T11:59:22.108Z,32.64
2024-05-09T12:00:29.608Z,32.62
2024-05-09T12:01:25.308Z,32.62
2024-05-09T12:02:22.190Z,32.67
2024-05-09T12:03:22.179Z,32.67
2024-05-09T12:04:22.231Z,32.66
2024-05-09T12:05:22.329Z,32.68
2024-05-09T12:06:22.136Z,32.49
2024-05-09T12:07:22.242Z,32.55
2024-05-09T12:08:22.127Z,32.49
2024-05-09T12:09:22.121Z,32.47
2024-05-09T12:10:26.283Z,32.45
2024-05-09T12:11:23.184Z,32.45
2024-05-09T12:12:22.131Z,32.42
2024-05-09T12:13:22.283Z,32.40
2024-05-09T12:14:22.157Z,32.38
2024-05-09T12:15:22.135Z,32.31
2024-05-09T12:16:22.274Z,32.37
2024-05-09T12:17:22.855Z,32.42
2024-05-09T12:18:22.208Z,32.28
2024-05-09T12:19:22.226Z,32.26
2024-05-09T12:20:28.822Z,32.19
2024-05-09T12:21:23.178Z,31.98
2024-05-09T12:22:22.219Z,32.05
2024-05-09T12:23:22.164Z,32.35
2024-05-09T12:24:22.230Z,32.26
2024-05-09T12:25:22.255Z,32.32
2024-05-09T12:26:22.184Z,32.23
2024-05-09T12:27:22.190Z,31.99
2024-05-09T12:28:22.302Z,32.17
2024-05-09T12:29:22.172Z,32.10
2024-05-09T12:30:32.689Z,32.23
2024-05-09T12:31:23.244Z,32.11
2024-05-09T12:32:22.257Z,32.16
2024-05-09T12:33:22.362Z,32.09
2024-05-09T12:34:22.274Z,32.17
2024-05-09T12:35:22.208Z,32.14
2024-05-09T12:36:22.208Z,32.02
2024-05-09T12:37:22.243Z,31.89
2024-05-09T12:38:22.185Z,31.82
2024-05-09T12:39:22.210Z,31.75
2024-05-09T12:40:31.335Z,31.72
2024-05-09T12:41:23.247Z,31.80
2024-05-09T12:42:27.113Z,31.75
2024-05-09T12:43:23.444Z,31.78
2024-05-09T12:44:22.258Z,31.81
2024-05-09T12:45:22.254Z,31.65
2024-05-09T12:46:22.372Z,31.68
2024-05-09T12:47:22.334Z,31.68
2024-05-09T12:48:22.453Z,31.66
2024-05-09T12:49:22.404Z,31.65
2024-05-09T12:50:29.648Z,31.76
2024-05-09T12:51:23.260Z,31.72
2024-05-09T12:52:22.488Z,31.65
2024-05-09T12:53:22.298Z,31.67
2024-05-09T12:54:22.279Z,31.63
2024-05-09T12:55:22.325Z,31.70
2024-05-09T12:56:22.280Z,31.70
2024-05-09T12:57:22.272Z,31.63
2024-05-09T12:58:22.825Z,31.62
2024-05-09T12:59:22.305Z,31.58
2024-05-09T13:00:28.203Z,31.64